This is the latest recevied weather packets stored in our database for station/object K4ZZR. If no packets are shown the sender has not sent any weather packets the latest 10 day(s).
| Time | Temp. | Humidity | Pressure | Rain* | Wind** | Luminosity | Snow |
|---|---|---|---|---|---|---|---|
| 1777662246 | 30.56° C | 54% | 1010.8 hPa | 0 mm | - | 827 W/m² | - |
| 1777661941 | 29.44° C | 64% | 1010.8 hPa | 0 mm | - | 842 W/m² | - |
| 1777661637 | 29.44° C | 69% | 1011.2 hPa | 0 mm | - | 853 W/m² | - |
| 1777661333 | 30° C | 66% | 1011.2 hPa | 0 mm | - | 673 W/m² | - |
| 1777661029 | 30° C | 69% | 1011.5 hPa | 0 mm | - | 888 W/m² | - |
| 1777660724 | 28.89° C | 71% | 1011.6 hPa | 0 mm | - | 623 W/m² | - |
| 1777660422 | 29.44° C | 71% | 1011.6 hPa | 0 mm | - | 390 W/m² | - |
| 1777660118 | 31.67° C | 59% | 1011.5 hPa | 0 mm | - | 912 W/m² | - |
| 1777659815 | 30.56° C | 55% | 1011.2 hPa | 0 mm | - | 919 W/m² | - |
| 1777659512 | 29.44° C | 72% | 1011.2 hPa | 0 mm | - | 915 W/m² | - |
| 1777659209 | 28.33° C | 76% | 1011.5 hPa | 0 mm | - | 641 W/m² | - |
| 1777658906 | 29.44° C | 72% | 1011.8 hPa | 0 mm | - | 1043 W/m² | - |
| 1777658602 | 28.89° C | 72% | 1011.6 hPa | 0 mm | - | 973 W/m² | - |
| 1777658300 | 28.89° C | 74% | 1011.7 hPa | 0 mm | - | 345 W/m² | - |
| 1777657996 | 28.89° C | 74% | 1011.7 hPa | 0 mm | - | 1033 W/m² | - |
| 1777657693 | 28.89° C | 74% | 1011.9 hPa | 0 mm | - | 1060 W/m² | - |
| 1777657391 | 29.44° C | 74% | 1012 hPa | 0 mm | - | 1046 W/m² | - |
| 1777657089 | 27.78° C | 77% | 1011.7 hPa | 0 mm | - | 704 W/m² | - |
| 1777656786 | 27.78° C | 78% | 1011.9 hPa | 0 mm | - | 251 W/m² | - |
| 1777656481 | 27.78° C | 78% | 1011.9 hPa | 0 mm | - | 336 W/m² | - |
| 1777656176 | 28.33° C | 76% | 1011.8 hPa | 0 mm | - | 305 W/m² | - |
| 1777655872 | 27.78° C | 77% | 1012.1 hPa | 0 mm | - | 1142 W/m² | - |
| 1777655569 | 28.33° C | 76% | 1012.1 hPa | 0 mm | - | 278 W/m² | - |
| 1777655266 | 28.89° C | 62% | 1012 hPa | 0 mm | - | 411 W/m² | - |
| 1777654963 | 29.44° C | 61% | 1011.9 hPa | 0 mm | - | 362 W/m² | - |
* Rain latest hour (hover to see other rain measurements)
** Current wind speed in m/s (hover to see current wind gust speed)